KCGF/CGF METAR and TAF weather

Enter ICAO airport designator
Station Type Date Time Source
KCGF METAR 2019/08/22 03:35 UTC NOAA

KCGF 220335Z AUTO 10SM SCT065 24/20 A2993 RMK AO2 TSNO FZRANO T02360202


Station Type Date Time Source
KCGF Decoded METAR 2019/08/22 03:35 UTC NOAA

Station name not available
Aug 21, 2019 - 11:35 PM EDT / 2019.08.22 0335 UTC
Visibility: 10 mile(s):0
Sky conditions: partly cloudy
Temperature: 74.5 F (23.6 C)
Dew Point: 68.4 F (20.2 C)
Relative Humidity: 81%
Pressure (altimeter): 29.93 in. Hg (1013 hPa)
ob: KCGF 220335Z AUTO 10SM SCT065 24/20 A2993 RMK AO2 TSNO FZRANO T02360202
cycle: 3

Station Type Date Time Source
KCGF TAF 2016/07/19 12:36 UTC NOAA

TAF KCGF 191136Z 1912/2012 VRB05KT P6SM SCT080
FM191400 33008KT P6SM SCT040
FM191900 35008KT P6SM SCT060
FM200000 04003KT P6SM SCT080
FM200700 14003KT P6SM SKC

Example: see airport list